Time;durP1;ratioP1;P1;durP2;ratioP2;P2;SDS_P1;SDS_P2;PMS_P1;PMS_P2;Temp;Humidity;BMP_temperature;BMP_pressure;BME280_temperature;BME280_humidity;BME280_pressure;Samples;Min_cycle;Max_cycle;Signal;HPM_P1;HPM_P2
2022/11/16 08:22:13;;;;;;;28.70;19.30;;;;;;;5.12;100.00;98649.44;99007;1328;560228;-66
2022/11/16 08:24:40;;;;;;;29.50;17.10;;;;;;;5.22;99.89;98648.89;105538;1307;75790;-66
2022/11/16 08:27:07;;;;;;;30.90;17.70;;;;;;;5.24;99.93;98649.05;105630;1315;137791;-67
2022/11/16 08:29:34;;;;;;;;;;;;;;;5.26;99.69;98653.62;105753;1307;23243;-66
2022/11/16 08:32:02;;;;;;;23.80;13.50;;;;;;;5.27;99.79;98657.42;105655;1313;123641;-66
2022/11/16 08:34:29;;;;;;;20.80;12.90;;;;;;;5.27;99.65;98655.64;105764;1313;22209;-66
2022/11/16 08:36:58;;;;;;;19.60;12.80;;;;;;;5.26;99.73;98653.13;105811;1315;22173;-66
2022/11/16 08:39:30;;;;;;;18.40;12.60;;;;;;;5.26;99.65;98652.96;105688;1315;138297;-66
2022/11/16 08:41:57;;;;;;;16.30;11.40;;;;;;;5.26;99.52;98657.56;105649;1303;22748;-68
2022/11/16 08:44:24;;;;;;;16.30;10.50;;;;;;;5.26;99.74;98658.52;105738;1307;139367;-67
2022/11/16 08:46:52;;;;;;;15.90;10.80;;;;;;;5.25;99.55;98661.83;106355;1307;22362;-67
2022/11/16 08:49:30;;;;;;;15.50;10.80;;;;;;;5.24;99.73;98659.31;106376;1292;23054;-66
2022/11/16 08:51:57;;;;;;;18.70;10.80;;;;;;;5.22;99.32;98658.83;106318;1300;137578;-67
2022/11/16 08:54:24;;;;;;;;;;;;;;;5.20;99.70;98657.01;106517;1285;22518;-67
2022/11/16 08:56:50;;;;;;;13.10;9.10;;;;;;;5.20;99.52;98659.88;106234;1294;123807;-67
2022/11/16 08:59:17;;;;;;;;;;;;;;;5.20;99.61;98656.27;106420;1301;23688;-66
2022/11/16 09:01:48;;;;;;;9.90;7.60;;;;;;;5.19;99.79;98653.77;106395;1306;23351;-67
2022/11/16 09:04:17;;;;;;;38.70;22.70;;;;;;;5.22;99.59;98652.64;106391;1301;137140;-69
2022/11/16 09:06:44;;;;;;;11.20;7.30;;;;;;;5.22;99.68;98653.71;106488;1306;22247;-69
2022/11/16 09:09:10;;;;;;;9.90;6.70;;;;;;;5.24;99.94;98652.02;106358;1306;138887;-68
2022/11/16 09:11:37;;;;;;;8.30;5.40;;;;;;;5.27;99.60;98649.91;106448;1301;22480;-68
2022/11/16 09:14:04;;;;;;;6.90;5.20;;;;;;;5.28;99.69;98650.91;106286;1292;138113;-68
2022/11/16 09:16:30;;;;;;;5.20;4.10;;;;;;;5.28;99.32;98650.47;106316;1287;22146;-68
2022/11/16 09:18:57;;;;;;;6.00;4.50;;;;;;;5.25;99.16;98651.65;106351;1309;22095;-67
2022/11/16 09:21:26;;;;;;;7.30;5.20;;;;;;;5.24;99.25;98652.17;106258;1306;137933;-68
2022/11/16 09:23:53;;;;;;;8.50;5.60;;;;;;;5.24;99.29;98649.68;106432;1308;22617;-68
2022/11/16 09:26:21;;;;;;;6.00;4.80;;;;;;;5.23;99.03;98646.55;106314;1309;139452;-67
2022/11/16 09:28:58;;;;;;;7.30;5.00;;;;;;;5.21;99.12;98643.14;106411;1308;22169;-67
2022/11/16 09:31:26;;;;;;;7.60;5.20;;;;;;;5.19;98.83;98640.06;106422;1308;22087;-67
2022/11/16 09:33:54;;;;;;;6.80;5.00;;;;;;;5.19;98.88;98640.43;106306;1300;137289;-67
2022/11/16 09:36:21;;;;;;;10.20;5.90;;;;;;;5.17;98.84;98641.11;106418;1300;22132;-67
2022/11/16 09:38:48;;;;;;;;;;;;;;;5.17;98.98;98635.38;106344;1308;138031;-67
2022/11/16 09:41:51;;;;;;;7.50;5.70;;;;;;;5.15;98.98;98633.30;106402;1309;22125;-66
2022/11/16 09:44:40;;;;;;;10.00;6.20;;;;;;;5.14;98.82;98633.94;106277;1307;139099;-67
2022/11/16 09:47:18;;;;;;;12.50;8.50;;;;;;;5.15;98.71;98632.54;106351;1309;22294;-67
2022/11/16 09:49:49;;;;;;;9.90;7.60;;;;;;;5.17;98.87;98628.85;106356;1309;22279;-68
2022/11/16 09:52:27;;;;;;;16.10;10.60;;;;;;;5.17;98.75;98631.71;106053;1311;138024;-65
2022/11/16 09:54:54;;;;;;;9.80;6.90;;;;;;;5.15;98.57;98625.85;106285;1309;22130;-67
2022/11/16 09:57:23;;;;;;;9.70;7.10;;;;;;;5.14;98.58;98622.05;106204;1310;137523;-68
2022/11/16 09:59:53;;;;;;;11.10;7.10;;;;;;;5.11;98.39;98615.73;101828;1302;22533;-67
2022/11/16 10:02:22;;;;;;;12.00;7.20;;;;;;;5.10;98.64;98606.95;105640;1303;138333;-68
2022/11/16 10:05:20;;;;;;;12.20;6.70;;;;;;;5.07;98.45;98609.71;106364;1309;22160;-68
2022/11/16 10:07:57;;;;;;;13.80;7.30;;;;;;;5.06;98.37;98610.11;106304;1301;22181;-68
2022/11/16 10:10:38;;;;;;;9.30;6.60;;;;;;;5.05;98.43;98610.59;106343;1300;22160;-68
2022/11/16 10:13:17;;;;;;;13.60;7.50;;;;;;;5.05;98.66;98611.73;106284;1304;23208;-68
2022/11/16 10:16:08;;;;;;;10.30;6.50;;;;;;;5.04;98.71;98609.14;106325;1308;137437;-67
2022/11/16 10:19:13;;;;;;;12.70;7.50;;;;;;;5.05;98.63;98605.58;106371;1308;22245;-65
2022/11/16 10:21:55;;;;;;;12.40;7.50;;;;;;;5.05;98.37;98610.92;106275;1308;139524;-67
2022/11/16 10:24:39;;;;;;;10.70;6.40;;;;;;;5.06;98.65;98610.45;106447;1306;22164;-67
2022/11/16 10:27:24;;;;;;;26.00;16.60;;;;;;;5.06;98.29;98611.86;106256;1303;137525;-67
2022/11/16 10:29:56;;;;;;;15.80;10.50;;;;;;;5.07;98.48;98602.42;106315;1308;23364;-65
2022/11/16 10:32:29;;;;;;;15.00;8.20;;;;;;;5.09;98.19;98595.80;106211;1307;138830;-65
2022/11/16 10:35:04;;;;;;;11.90;7.20;;;;;;;5.09;98.10;98596.89;106398;1308;22137;-65
2022/11/16 10:37:32;;;;;;;13.20;8.50;;;;;;;5.08;98.11;98598.67;106189;1303;22922;-65
2022/11/16 10:40:08;;;;;;;12.80;7.30;;;;;;;5.08;98.00;98592.20;106246;1309;137725;-65
2022/11/16 10:42:38;;;;;;;13.70;7.60;;;;;;;5.08;98.07;98588.46;106196;1310;22118;-65
2022/11/16 10:45:19;;;;;;;15.10;8.50;;;;;;;5.11;98.02;98583.38;106298;1307;137517;-65
2022/11/16 10:47:52;;;;;;;11.60;7.00;;;;;;;5.12;98.00;98583.89;106387;1302;22943;-65
2022/11/16 10:50:38;;;;;;;11.80;7.10;;;;;;;5.12;97.99;98582.31;106297;1308;138049;-65
2022/11/16 10:53:05;;;;;;;9.70;6.90;;;;;;;5.14;97.83;98583.38;106215;1310;22227;-65
2022/11/16 10:55:32;;;;;;;13.90;8.10;;;;;;;5.14;97.58;98581.39;106084;1303;22923;-65
2022/11/16 10:58:00;;;;;;;12.30;7.30;;;;;;;5.14;97.65;98582.19;106256;1308;137794;-65
2022/11/16 11:00:47;;;;;;;16.50;8.70;;;;;;;5.13;97.55;98580.55;106402;1303;23434;-64
2022/11/16 11:03:30;;;;;;;14.00;7.40;;;;;;;5.12;97.32;98580.60;106277;1308;138448;-65
2022/11/16 11:05:57;;;;;;;14.90;9.40;;;;;;;5.12;97.36;98585.23;106422;1308;22190;-65
2022/11/16 11:08:31;;;;;;;22.10;10.00;;;;;;;5.12;97.09;98588.30;106216;1310;138723;-65
2022/11/16 11:12:36;;;;;;;16.00;9.60;;;;;;;5.11;97.04;98585.65;106393;1308;22301;-69
2022/11/16 11:14:09;;;;;;;15.50;8.70;;;;;;;5.12;97.31;98580.91;106380;1303;22140;-65
2022/11/16 11:16:36;;;;;;;14.30;8.70;;;;;;;5.11;97.06;98579.23;106319;1309;22094;-68
2022/11/16 11:19:18;;;;;;;17.30;11.10;;;;;;;5.06;96.81;98580.22;106349;1309;23070;-65
2022/11/16 11:21:45;;;;;;;14.70;8.60;;;;;;;5.02;96.93;98577.95;106265;1300;137726;-66
2022/11/16 11:24:15;;;;;;;;;;;;;;;4.99;96.89;98576.23;106425;1287;22494;-66
2022/11/16 11:27:02;;;;;;;15.00;9.20;;;;;;;4.97;96.88;98575.82;106335;1308;124283;-66
2022/11/16 11:29:31;;;;;;;20.00;10.90;;;;;;;4.96;97.09;98578.66;106450;1291;22163;-65
2022/11/16 11:32:14;;;;;;;17.10;10.10;;;;;;;4.97;96.98;98582.14;106292;1309;22403;-66
2022/11/16 11:34:51;;;;;;;13.00;9.60;;;;;;;4.97;97.23;98579.96;106380;1284;22981;-66
2022/11/16 11:37:19;;;;;;;14.60;8.10;;;;;;;4.97;96.96;98579.15;106306;1301;22117;-66
2022/11/16 11:39:45;;;;;;;14.30;7.90;;;;;;;4.95;97.10;98574.27;106315;1308;137548;-67
2022/11/16 11:42:12;;;;;;;98.70;52.40;;;;;;;4.93;97.10;98573.38;106417;1308;22183;-63
2022/11/16 11:44:48;;;;;;;17.90;10.10;;;;;;;4.94;97.12;98574.23;106287;1308;138107;-67
2022/11/16 11:47:25;;;;;;;15.80;7.80;;;;;;;4.95;97.35;98572.33;106435;1308;22106;-67
2022/11/16 11:50:25;;;;;;;13.90;9.20;;;;;;;4.96;97.01;98570.66;106340;1308;138400;-66
2022/11/16 11:53:00;;;;;;;15.50;8.30;;;;;;;4.96;96.68;98572.83;106309;1306;23218;-66
2022/11/16 11:55:27;;;;;;;15.80;8.10;;;;;;;4.96;96.39;98577.74;106454;1300;22951;-67
2022/11/16 11:57:54;;;;;;;13.10;9.20;;;;;;;4.96;96.61;98577.63;106266;1300;137885;-67
2022/11/16 12:00:22;;;;;;;11.10;7.70;;;;;;;4.95;96.46;98578.48;106367;1308;22109;-67
2022/11/16 12:03:11;;;;;;;13.80;9.40;;;;;;;4.95;96.65;98580.43;106334;1308;138398;-66
2022/11/16 12:06:06;;;;;;;15.90;10.50;;;;;;;4.94;96.48;98583.95;106486;1308;22275;-66
2022/11/16 12:08:46;;;;;;;17.10;11.80;;;;;;;4.90;96.49;98582.50;106332;1304;137929;-67
2022/11/16 12:11:25;;;;;;;21.40;12.70;;;;;;;4.87;96.68;98577.98;106401;1300;23198;-67
2022/11/16 12:14:04;;;;;;;20.60;12.90;;;;;;;4.86;96.62;98575.27;106429;1299;22170;-67
2022/11/16 12:16:35;;;;;;;18.90;11.90;;;;;;;4.85;96.65;98572.10;106431;1291;22142;-67
2022/11/16 12:19:27;;;;;;;19.40;11.20;;;;;;;4.81;96.28;98570.85;106431;1300;23270;-67
2022/11/16 12:21:53;;;;;;;21.10;12.40;;;;;;;4.76;96.11;98577.77;106338;1300;138677;-67
2022/11/16 12:24:58;;;;;;;20.40;13.50;;;;;;;4.73;96.14;98575.63;106442;1307;22115;-67
2022/11/16 12:27:25;;;;;;;22.70;14.20;;;;;;;4.70;96.42;98573.83;106242;1299;138033;-66
2022/11/16 12:30:11;;;;;;;22.50;14.10;;;;;;;4.67;96.39;98571.62;106386;1305;22136;-67
2022/11/16 12:32:58;;;;;;;24.40;14.30;;;;;;;4.64;96.21;98571.30;106216;1308;137889;-67
2022/11/16 12:35:43;;;;;;;28.10;15.40;;;;;;;4.60;96.43;98568.40;106496;1305;22241;-66
2022/11/16 12:38:20;;;;;;;20.30;13.20;;;;;;;4.59;96.74;98570.54;106480;1305;137723;-66
2022/11/16 12:41:02;;;;;;;24.00;14.10;;;;;;;4.56;96.47;98573.17;106552;1297;22792;-67
2022/11/16 12:43:32;;;;;;;18.70;11.80;;;;;;;4.56;97.01;98579.59;106512;1298;23108;-67
2022/11/16 12:46:33;;;;;;;20.50;13.60;;;;;;;4.54;96.96;98577.05;106511;1297;138467;-67
2022/11/16 12:49:04;;;;;;;18.10;11.00;;;;;;;4.50;97.09;98578.88;106292;1308;22174;-66
2022/11/16 12:51:38;;;;;;;16.90;11.00;;;;;;;4.48;96.90;98577.00;106245;1300;138627;-66
2022/11/16 12:54:23;;;;;;;18.30;12.80;;;;;;;4.49;97.14;98576.90;106135;1302;22823;-68
2022/11/16 12:57:20;;;;;;;15.50;9.80;;;;;;;4.49;97.19;98581.80;106193;1306;139285;-68
2022/11/16 13:00:16;;;;;;;13.70;9.00;;;;;;;4.48;97.20;98585.74;106159;1308;22168;-68
2022/11/16 13:02:56;;;;;;;13.50;8.70;;;;;;;4.48;97.06;98587.46;106164;1307;138076;-68
2022/11/16 13:05:28;;;;;;;15.10;8.70;;;;;;;4.42;96.96;98580.14;106324;1308;22122;-68
2022/11/16 13:08:27;;;;;;;13.80;9.10;;;;;;;4.43;97.02;98585.23;106099;1309;22321;-68
2022/11/16 13:25:05;;;;;;;11.70;8.10;;;;;;;4.76;96.70;98570.81;99937;1334;557727;-63
2022/11/16 13:28:16;;;;;;;14.70;9.10;;;;;;;4.82;96.58;98572.58;105116;1314;76573;-63
2022/11/16 13:30:49;;;;;;;9.70;8.10;;;;;;;4.76;96.23;98572.02;105207;1311;137472;-61
2022/11/16 13:33:46;;;;;;;120.40;71.90;;;;;;;4.73;96.58;98567.20;105131;1323;22172;-60
2022/11/16 13:36:43;;;;;;;37.30;21.60;;;;;;;4.69;96.49;98564.96;105164;1317;138277;-60
2022/11/16 13:39:12;;;;;;;14.50;9.50;;;;;;;4.62;96.47;98562.63;105139;1319;22300;-61
2022/11/16 13:42:03;;;;;;;14.60;8.20;;;;;;;4.61;96.51;98568.34;105257;1320;138453;-60
2022/11/16 13:44:30;;;;;;;11.30;6.30;;;;;;;4.55;96.31;98568.14;105295;1320;22237;-61
2022/11/16 13:47:04;;;;;;;;;;;;;;;4.52;96.21;98568.45;102123;1311;24310;-55
2022/11/16 13:49:40;;;;;;;10.00;6.60;;;;;;;4.49;96.38;98566.77;100957;1311;124708;-54
2022/11/16 13:52:09;;;;;;;9.20;6.70;;;;;;;4.44;96.46;98567.40;100774;1320;25320;-54
2022/11/16 13:54:52;;;;;;;13.20;6.60;;;;;;;4.41;96.46;98562.05;100732;1295;139492;-52
2022/11/16 13:57:25;;;;;;;8.70;6.00;;;;;;;4.40;96.58;98560.77;104743;1330;22187;-53
2022/11/16 14:00:01;;;;;;;11.10;5.90;;;;;;;4.37;96.65;98561.15;105097;1325;139783;-53
2022/11/16 14:02:30;;;;;;;10.70;4.90;;;;;;;4.35;96.59;98560.95;105350;1322;22218;-53
2022/11/16 14:04:59;;;;;;;9.30;5.00;;;;;;;4.34;96.38;98562.11;105358;1319;22200;-52
2022/11/16 14:07:33;;;;;;;10.40;6.80;;;;;;;4.32;96.23;98568.30;105635;1316;137608;-53
2022/11/16 14:10:01;;;;;;;9.80;6.70;;;;;;;4.31;96.37;98565.75;105508;1300;22964;-52
2022/11/16 14:12:37;;;;;;;10.30;6.80;;;;;;;4.31;96.23;98565.16;105661;1316;138000;-53
2022/11/16 14:15:34;;;;;;;8.00;5.90;;;;;;;4.32;96.20;98567.77;106679;1303;22224;-53
2022/11/16 14:18:07;;;;;;;99.90;51.70;;;;;;;4.31;96.61;98567.20;102239;1299;137407;-51
2022/11/16 14:20:40;;;;;;;18.40;10.60;;;;;;;4.30;96.38;98570.14;106389;1313;22907;-56
2022/11/16 14:23:17;;;;;;;9.60;5.90;;;;;;;4.28;96.61;98568.13;106544;1305;22134;-55
2022/11/16 14:25:50;;;;;;;7.70;3.80;;;;;;;4.24;96.28;98566.95;106432;1303;137146;-56
2022/11/16 14:28:26;;;;;;;6.30;3.90;;;;;;;4.20;96.44;98559.80;106697;1305;22233;-56
2022/11/16 14:31:23;;;;;;;6.60;4.50;;;;;;;4.16;96.04;98565.31;106622;1295;137752;-57
2022/11/16 14:33:52;;;;;;;8.20;4.30;;;;;;;4.14;96.31;98566.29;106642;1296;22939;-56
2022/11/16 14:36:40;;;;;;;8.00;4.80;;;;;;;4.12;96.18;98562.46;106441;1305;137422;-57
2022/11/16 14:39:26;;;;;;;8.20;4.80;;;;;;;4.12;96.32;98560.46;106551;1300;22131;-56
2022/11/16 14:41:55;;;;;;;7.70;6.00;;;;;;;4.10;96.43;98564.31;106434;1306;138071;-60
2022/11/16 14:44:24;;;;;;;106.70;58.00;;;;;;;4.11;96.88;98567.08;106567;1298;22265;-52
2022/11/16 14:46:51;;;;;;;46.40;23.30;;;;;;;4.09;97.06;98563.70;103585;1289;25459;-55
2022/11/16 14:49:19;;;;;;;;;;;;;;;4.10;97.12;98569.70;102362;1289;139434;-56
2022/11/16 14:51:52;;;;;;;15.10;7.00;;;;;;;4.11;97.07;98571.55;102286;1289;22500;-56
2022/11/16 14:54:24;;;;;;;6.40;4.60;;;;;;;4.10;97.13;98572.77;102296;1296;138229;-57
2022/11/16 14:56:59;;;;;;;4.40;3.20;;;;;;;4.05;97.05;98564.84;106489;1306;22205;-58
2022/11/16 14:59:27;;;;;;;5.40;3.70;;;;;;;4.04;96.74;98569.84;106597;1289;138512;-57
2022/11/16 15:01:53;;;;;;;5.70;3.60;;;;;;;4.01;96.90;98573.56;106643;1306;22442;-58
2022/11/16 15:04:20;;;;;;;;;;;;;;;3.97;96.71;98566.75;106720;1304;22336;-58
2022/11/16 15:06:55;;;;;;;8.40;6.20;;;;;;;3.93;96.79;98563.95;106651;1301;124235;-58
2022/11/16 15:09:46;;;;;;;12.80;9.80;;;;;;;3.89;96.62;98563.40;106542;1299;22151;-58
2022/11/16 15:15:11;;;;;;;14.40;11.80;;;;;;;3.82;96.93;98567.35;106542;1306;22169;-58
2022/11/16 15:17:39;;;;;;;7.40;6.20;;;;;;;3.78;97.12;98574.59;106463;1305;139072;-58
2022/11/16 15:20:20;;;;;;;10.10;8.60;;;;;;;3.75;97.30;98575.08;106544;1305;22423;-58
2022/11/16 15:22:50;;;;;;;9.10;7.40;;;;;;;3.74;97.23;98576.42;106568;1305;22161;-57
2022/11/16 15:25:25;;;;;;;40.20;22.90;;;;;;;3.73;97.17;98578.55;106465;1296;137291;-58
2022/11/16 15:27:51;;;;;;;33.80;20.50;;;;;;;3.71;97.12;98587.05;106551;1305;22334;-58
2022/11/16 15:30:20;;;;;;;18.60;11.50;;;;;;;3.65;96.85;98585.36;106389;1297;138204;-57
2022/11/16 15:32:49;;;;;;;19.00;10.70;;;;;;;3.63;97.04;98586.60;106505;1283;22155;-58
2022/11/16 15:35:20;;;;;;;8.90;5.50;;;;;;;3.63;97.09;98577.33;106515;1289;22263;-57
2022/11/16 15:37:48;;;;;;;11.70;6.10;;;;;;;3.63;96.86;98579.31;106582;1291;22128;-58
2022/11/16 15:40:14;;;;;;;23.60;12.20;;;;;;;3.60;96.74;98580.80;106565;1305;23299;-58
2022/11/16 15:42:41;;;;;;;23.40;18.00;;;;;;;3.58;96.76;98582.20;106554;1305;137819;-58
2022/11/16 15:45:21;;;;;;;;;;;;;;;3.57;96.95;98587.40;106571;1291;22378;-54
2022/11/16 15:47:52;;;;;;;24.20;16.00;;;;;;;3.55;97.10;98586.02;106546;1288;123981;-57
2022/11/16 15:50:22;;;;;;;14.60;11.40;;;;;;;3.53;96.65;98585.59;106474;1305;23017;-58
2022/11/16 15:52:55;;;;;;;11.00;9.00;;;;;;;3.52;96.61;98585.73;106476;1304;22157;-58
2022/11/16 15:55:31;;;;;;;10.80;7.40;;;;;;;3.52;96.85;98583.34;106550;1288;138742;-58
2022/11/16 15:58:05;;;;;;;9.80;7.90;;;;;;;3.50;96.75;98579.27;106581;1304;22164;-58
2022/11/16 16:00:34;;;;;;;7.20;5.40;;;;;;;3.49;96.91;98583.96;106452;1297;138446;-57
2022/11/16 16:03:16;;;;;;;12.50;6.90;;;;;;;3.47;96.58;98584.58;106482;1306;22162;-58
2022/11/16 16:05:43;;;;;;;8.50;6.30;;;;;;;3.45;96.66;98583.35;106549;1305;138013;-57
2022/11/16 16:08:31;;;;;;;11.00;8.20;;;;;;;3.43;96.59;98581.45;106671;1295;22185;-57
2022/11/16 16:11:09;;;;;;;9.90;8.10;;;;;;;3.43;96.59;98581.65;106712;1303;22165;-57
2022/11/16 16:13:40;;;;;;;8.10;6.50;;;;;;;3.41;96.62;98586.45;106522;1306;137803;-58
2022/11/16 16:16:25;;;;;;;9.90;8.10;;;;;;;3.39;96.40;98588.71;106634;1288;22851;-57
2022/11/16 16:18:52;;;;;;;10.60;9.50;;;;;;;3.37;96.52;98585.55;106496;1286;138960;-57
2022/11/16 16:21:19;;;;;;;6.60;5.20;;;;;;;3.37;96.65;98586.39;106572;1295;22971;-57
2022/11/16 16:23:50;;;;;;;;;;;;;;;3.36;96.55;98591.70;106626;1303;140382;-57
2022/11/16 16:26:17;;;;;;;10.30;9.20;;;;;;;3.35;96.46;98587.73;106637;1303;22271;-57
2022/11/16 16:28:44;;;;;;;;;;;;;;;3.35;96.69;98588.70;106603;1305;22371;-57
2022/11/16 16:31:11;;;;;;;6.40;4.30;;;;;;;3.34;96.79;98583.95;106565;1305;123815;-57
2022/11/16 16:33:38;;;;;;;17.00;11.30;;;;;;;3.32;96.61;98585.73;106464;1296;22133;-55
2022/11/16 16:36:05;;;;;;;22.70;16.20;;;;;;;3.30;96.53;98584.20;106542;1297;137863;-53
2022/11/16 16:38:32;;;;;;;5.70;4.20;;;;;;;3.27;96.58;98587.31;106490;1295;22276;-53
2022/11/16 16:40:59;;;;;;;;;;;;;;;3.23;96.02;98584.35;106594;1305;23115;-53
2022/11/16 16:43:26;;;;;;;7.50;5.50;;;;;;;3.19;96.09;98581.77;106431;1291;125170;-53
2022/11/16 16:45:53;;;;;;;7.60;5.90;;;;;;;3.16;95.96;98583.50;106628;1303;22930;-53
2022/11/16 16:48:19;;;;;;;;;;;;;;;3.12;96.10;98584.00;106483;1305;138110;-53
2022/11/16 16:50:46;;;;;;;8.40;6.00;;;;;;;3.10;96.01;98583.95;106554;1298;22152;-53
2022/11/16 16:53:13;;;;;;;;;;;;;;;3.08;96.11;98584.27;106728;1303;22421;-53
2022/11/16 16:55:40;;;;;;;12.90;9.90;;;;;;;3.08;96.01;98589.21;106627;1303;124917;-53
2022/11/16 16:58:10;;;;;;;6.70;4.60;;;;;;;3.06;96.43;98591.01;106573;1305;22166;-53
2022/11/16 17:00:37;;;;;;;5.90;4.50;;;;;;;3.06;96.34;98585.88;106532;1305;138811;-53
2022/11/16 17:03:03;;;;;;;;;;;;;;;3.03;95.74;98584.25;106581;1305;23272;-53
2022/11/16 17:05:32;;;;;;;2.70;2.30;;;;;;;2.97;95.67;98585.41;106451;1291;124033;-53
2022/11/16 17:07:59;;;;;;;4.90;3.00;;;;;;;2.91;95.33;98587.07;106546;1305;22164;-53
2022/11/16 17:10:26;;;;;;;3.70;2.30;;;;;;;2.85;95.41;98584.47;106713;1303;23075;-54
2022/11/16 17:12:54;;;;;;;3.10;2.60;;;;;;;2.78;95.18;98589.02;106477;1298;137994;-53
2022/11/16 17:15:21;;;;;;;3.20;2.80;;;;;;;2.71;94.79;98582.23;106590;1305;22223;-54
2022/11/16 17:17:47;;;;;;;;;;;;;;;2.65;94.91;98577.67;106510;1291;138089;-53
2022/11/16 17:20:15;;;;;;;34.30;18.90;;;;;;;2.63;94.89;98578.41;106644;1296;22123;-53
2022/11/16 17:22:42;;;;;;;43.10;17.60;;;;;;;2.59;95.18;98582.63;106725;1303;23286;-54
2022/11/16 17:25:10;;;;;;;97.00;41.40;;;;;;;2.55;95.13;98587.58;106436;1291;138959;-55
2022/11/16 17:27:37;;;;;;;6.10;3.40;;;;;;;2.52;95.14;98586.29;106547;1306;23031;-53
2022/11/16 17:30:03;;;;;;;;;;;;;;;2.47;95.28;98584.02;106605;1303;139422;-53
2022/11/16 17:32:31;;;;;;;6.20;3.30;;;;;;;2.45;95.26;98586.66;106548;1303;22125;-53
2022/11/16 17:34:57;;;;;;;4.10;3.20;;;;;;;2.42;95.30;98584.89;106633;1304;22142;-53
2022/11/16 17:37:24;;;;;;;3.40;2.60;;;;;;;2.42;95.50;98583.36;106440;1287;137391;-53
2022/11/16 17:39:51;;;;;;;5.80;4.90;;;;;;;2.42;95.40;98586.10;106553;1297;22920;-53
2022/11/16 17:42:18;;;;;;;6.70;3.10;;;;;;;2.42;95.42;98591.77;106378;1297;138439;-53
2022/11/16 17:44:44;;;;;;;5.30;2.90;;;;;;;2.41;95.39;98588.39;106699;1289;22138;-54
2022/11/16 17:47:11;;;;;;;4.20;3.00;;;;;;;2.41;95.57;98590.06;106517;1305;22368;-54
2022/11/16 17:49:38;;;;;;;;;;;;;;;2.38;95.46;98594.05;106543;1305;138961;-54
2022/11/16 17:52:05;;;;;;;3.90;2.90;;;;;;;2.35;95.42;98593.80;106523;1299;22256;-53
2022/11/16 17:54:31;;;;;;;;;;;;;;;2.31;95.36;98590.75;106601;1303;137421;-53
2022/11/16 17:56:58;;;;;;;6.20;3.60;;;;;;;2.29;95.48;98588.81;106519;1305;23146;-54
2022/11/16 17:59:25;;;;;;;5.10;3.50;;;;;;;2.26;95.61;98586.31;106506;1297;138494;-54
2022/11/16 18:01:56;;;;;;;6.20;3.60;;;;;;;2.23;95.47;98585.73;106555;1296;22327;-53
2022/11/16 18:04:23;;;;;;;6.30;4.10;;;;;;;2.19;95.44;98586.98;106525;1305;23304;-54
2022/11/16 18:06:50;;;;;;;4.60;3.00;;;;;;;2.17;95.42;98587.77;106487;1305;138470;-53
2022/11/16 18:09:17;;;;;;;4.30;3.10;;;;;;;2.14;95.39;98589.87;106610;1288;22219;-53
2022/11/16 18:11:44;;;;;;;;;;;;;;;2.12;95.47;98590.73;106626;1302;138420;-53
2022/11/16 18:14:11;;;;;;;7.20;3.60;;;;;;;2.05;95.37;98582.03;106545;1297;22747;-54
2022/11/16 18:16:41;;;;;;;5.50;3.80;;;;;;;2.04;95.29;98583.91;106596;1303;22192;-53
2022/11/16 18:19:08;;;;;;;4.40;3.10;;;;;;;2.00;95.20;98577.85;106469;1305;137622;-54
2022/11/16 18:21:39;;;;;;;5.20;3.40;;;;;;;1.97;95.23;98575.90;106510;1298;22171;-53
2022/11/16 18:24:06;;;;;;;5.90;3.70;;;;;;;1.96;95.39;98578.02;106563;1295;137720;-54
2022/11/16 18:26:33;;;;;;;4.90;3.60;;;;;;;1.91;95.37;98568.14;106560;1302;22353;-53
2022/11/16 18:29:00;;;;;;;5.00;4.00;;;;;;;1.95;95.41;98577.66;106707;1302;22959;-53
2022/11/16 18:31:28;;;;;;;7.00;3.90;;;;;;;1.95;95.54;98577.55;106423;1281;137600;-53
2022/11/16 18:33:55;;;;;;;5.20;3.90;;;;;;;1.94;95.62;98581.77;106607;1297;22276;-53
2022/11/16 18:36:22;;;;;;;;;;;;;;;1.94;95.59;98579.13;106470;1305;137666;-53
2022/11/16 18:38:49;;;;;;;5.70;3.60;;;;;;;1.92;95.61;98573.15;106550;1305;22190;-53
2022/11/16 18:41:20;;;;;;;7.00;3.80;;;;;;;1.91;95.62;98576.39;106541;1297;23436;-53
2022/11/16 18:43:54;;;;;;;6.40;4.20;;;;;;;1.89;95.51;98579.25;106505;1297;22110;-53
2022/11/16 18:46:25;;;;;;;5.20;3.80;;;;;;;1.89;95.68;98578.77;106596;1303;22209;-53
2022/11/16 18:48:52;;;;;;;6.30;3.70;;;;;;;1.88;95.60;98579.08;106450;1305;138466;-53
2022/11/16 18:51:19;;;;;;;5.30;3.90;;;;;;;1.83;95.46;98578.56;106517;1289;22312;-53
2022/11/16 18:53:46;;;;;;;4.90;3.90;;;;;;;1.82;95.45;98580.44;106456;1305;137858;-53
2022/11/16 18:56:13;;;;;;;;;;;;;;;1.82;95.63;98581.13;106549;1305;22347;-53
2022/11/16 18:58:41;;;;;;;5.80;3.80;;;;;;;1.81;95.46;98578.59;106534;1305;22218;-53
2022/11/16 19:01:19;;;;;;;6.00;4.10;;;;;;;1.76;95.50;98578.13;106543;1303;138762;-53
2022/11/16 19:03:46;;;;;;;8.40;5.20;;;;;;;1.71;95.67;98573.11;106657;1303;22529;-54
2022/11/16 19:06:14;;;;;;;;;;;;;;;1.74;95.55;98578.82;106496;1303;137761;-54
2022/11/16 19:08:41;;;;;;;8.90;6.00;;;;;;;1.71;95.67;98580.97;106517;1305;22112;-53
2022/11/16 19:11:10;;;;;;;8.40;4.80;;;;;;;1.65;95.70;98577.40;106600;1295;22689;-53
2022/11/16 19:13:38;;;;;;;8.30;5.20;;;;;;;1.67;95.75;98581.68;106461;1305;137845;-53
2022/11/16 19:16:05;;;;;;;5.00;4.00;;;;;;;1.65;95.79;98583.02;106543;1297;22248;-54
2022/11/16 19:18:32;;;;;;;5.80;4.20;;;;;;;1.62;95.65;98582.71;106517;1306;139713;-53
2022/11/16 19:21:09;;;;;;;5.70;4.00;;;;;;;1.60;95.75;98582.52;106542;1297;22155;-53
2022/11/16 19:23:36;;;;;;;;;;;;;;;1.56;95.59;98578.62;106428;1305;137765;-54
2022/11/16 19:26:04;;;;;;;4.70;3.30;;;;;;;1.53;95.70;98576.33;106534;1289;22181;-53
2022/11/16 19:28:40;;;;;;;4.10;3.30;;;;;;;1.51;95.71;98575.08;106674;1304;22161;-53
2022/11/16 19:31:27;;;;;;;4.20;2.90;;;;;;;1.47;95.54;98575.69;106573;1288;138797;-54
2022/11/16 19:33:58;;;;;;;4.10;2.70;;;;;;;1.41;95.52;98578.23;106556;1305;22217;-54
2022/11/16 19:36:26;;;;;;;3.50;2.70;;;;;;;1.37;95.62;98576.83;104156;1298;138763;-53
2022/11/16 19:38:53;;;;;;;8.80;5.70;;;;;;;1.34;95.56;98580.52;102153;1295;22614;-53
2022/11/16 19:41:21;;;;;;;;;;;;;;;1.31;95.72;98575.64;102086;1291;22507;-52
2022/11/16 19:43:51;;;;;;;5.70;3.40;;;;;;;1.31;95.72;98574.41;106614;1305;22192;-54
2022/11/16 19:46:20;;;;;;;5.00;4.00;;;;;;;1.28;95.89;98575.65;106569;1305;22194;-54
2022/11/16 19:48:48;;;;;;;4.40;3.10;;;;;;;1.28;95.89;98576.60;106572;1288;139421;-54
2022/11/16 19:51:16;;;;;;;24.50;8.00;;;;;;;1.28;95.92;98580.52;106521;1297;22898;-54
2022/11/16 19:53:43;;;;;;;49.90;13.60;;;;;;;1.25;95.88;98572.26;106508;1297;138357;-54
2022/11/16 19:56:11;;;;;;;22.30;9.70;;;;;;;1.27;95.77;98574.50;106659;1304;22235;-54
2022/11/16 19:58:38;;;;;;;10.90;6.00;;;;;;;1.26;95.93;98573.80;106567;1297;22942;-54
2022/11/16 20:01:21;;;;;;;5.30;3.70;;;;;;;1.24;95.73;98567.98;106446;1297;137781;-54
2022/11/16 20:03:48;;;;;;;5.60;3.60;;;;;;;1.18;95.85;98563.31;106548;1305;22104;-53
2022/11/16 20:06:17;;;;;;;4.60;3.00;;;;;;;1.22;96.05;98571.03;106539;1303;138685;-53
2022/11/16 20:08:48;;;;;;;7.50;4.90;;;;;;;1.22;96.09;98572.98;106676;1303;23364;-53
2022/11/16 20:11:16;;;;;;;10.50;5.90;;;;;;;1.24;96.00;98574.36;106511;1305;22120;-53
2022/11/16 20:13:43;;;;;;;7.70;5.50;;;;;;;1.24;96.11;98572.75;106392;1305;138844;-53
2022/11/16 20:16:10;;;;;;;;;;;;;;;1.24;96.11;98572.05;106489;1284;23216;-54
2022/11/16 20:18:37;;;;;;;7.40;4.30;;;;;;;1.22;96.09;98573.14;106436;1302;124687;-53
2022/11/16 20:21:04;;;;;;;9.70;5.80;;;;;;;1.19;95.89;98573.41;106531;1290;22261;-54
2022/11/16 20:23:36;;;;;;;8.00;4.90;;;;;;;1.16;96.18;98569.34;106530;1303;137927;-54
2022/11/16 20:26:07;;;;;;;5.40;3.70;;;;;;;1.17;96.19;98569.63;106521;1305;23280;-53
2022/11/16 20:28:35;;;;;;;6.20;4.40;;;;;;;1.17;96.25;98574.63;106605;1288;22130;-53
2022/11/16 20:31:06;;;;;;;6.80;4.90;;;;;;;1.18;96.26;98573.75;106492;1299;138201;-53
2022/11/16 20:33:33;;;;;;;8.60;5.80;;;;;;;1.18;96.30;98575.85;106535;1288;22144;-52